sensor_id;sensor_type;location;lat;lon;timestamp;P1;durP1;ratioP1;P2;durP2;ratioP2
35632;SDS011;21754;48.216;-1.628;2022-10-31T00:00:50;2.15;;;1.58;;
35632;SDS011;21754;48.216;-1.628;2022-10-31T00:03:16;12.35;;;2.13;;
35632;SDS011;21754;48.216;-1.628;2022-10-31T00:05:44;86.80;;;3.72;;
35632;SDS011;21754;48.216;-1.628;2022-10-31T00:08:10;4.10;;;1.40;;
35632;SDS011;21754;48.216;-1.628;2022-10-31T00:10:37;3.75;;;1.38;;
35632;SDS011;21754;48.216;-1.628;2022-10-31T00:13:03;2.03;;;1.92;;
35632;SDS011;21754;48.216;-1.628;2022-10-31T00:15:29;4.15;;;1.90;;
35632;SDS011;21754;48.216;-1.628;2022-10-31T00:17:55;24.10;;;2.22;;
35632;SDS011;21754;48.216;-1.628;2022-10-31T00:20:21;14.25;;;3.25;;
35632;SDS011;21754;48.216;-1.628;2022-10-31T00:22:47;3.80;;;1.58;;
35632;SDS011;21754;48.216;-1.628;2022-10-31T00:25:13;4.05;;;1.75;;
35632;SDS011;21754;48.216;-1.628;2022-10-31T00:27:39;11.20;;;1.98;;
35632;SDS011;21754;48.216;-1.628;2022-10-31T00:30:05;7.63;;;1.90;;
35632;SDS011;21754;48.216;-1.628;2022-10-31T00:32:32;7.45;;;1.63;;
35632;SDS011;21754;48.216;-1.628;2022-10-31T00:34:58;5.10;;;1.48;;
35632;SDS011;21754;48.216;-1.628;2022-10-31T00:37:24;8.32;;;1.80;;
35632;SDS011;21754;48.216;-1.628;2022-10-31T00:39:50;11.15;;;1.85;;
35632;SDS011;21754;48.216;-1.628;2022-10-31T00:42:16;8.98;;;1.80;;
35632;SDS011;21754;48.216;-1.628;2022-10-31T00:44:42;4.18;;;1.75;;
35632;SDS011;21754;48.216;-1.628;2022-10-31T00:47:08;6.32;;;1.20;;
35632;SDS011;21754;48.216;-1.628;2022-10-31T00:49:34;4.47;;;2.55;;
35632;SDS011;21754;48.216;-1.628;2022-10-31T00:52:00;10.50;;;1.42;;
35632;SDS011;21754;48.216;-1.628;2022-10-31T00:54:26;8.38;;;1.58;;
35632;SDS011;21754;48.216;-1.628;2022-10-31T00:56:52;1.40;;;1.17;;
35632;SDS011;21754;48.216;-1.628;2022-10-31T00:59:18;10.65;;;2.17;;
35632;SDS011;21754;48.216;-1.628;2022-10-31T01:01:44;9.95;;;2.28;;
35632;SDS011;21754;48.216;-1.628;2022-10-31T01:04:10;3.65;;;1.83;;
35632;SDS011;21754;48.216;-1.628;2022-10-31T01:06:36;2.17;;;1.63;;
35632;SDS011;21754;48.216;-1.628;2022-10-31T01:09:02;16.55;;;3.15;;
35632;SDS011;21754;48.216;-1.628;2022-10-31T01:11:28;11.90;;;2.25;;
35632;SDS011;21754;48.216;-1.628;2022-10-31T01:13:54;8.00;;;2.42;;
35632;SDS011;21754;48.216;-1.628;2022-10-31T01:16:21;5.03;;;2.03;;
35632;SDS011;21754;48.216;-1.628;2022-10-31T01:18:47;6.00;;;1.60;;
35632;SDS011;21754;48.216;-1.628;2022-10-31T01:21:21;3.67;;;1.92;;
35632;SDS011;21754;48.216;-1.628;2022-10-31T01:23:47;11.73;;;2.58;;
35632;SDS011;21754;48.216;-1.628;2022-10-31T01:28:56;3.35;;;1.75;;
35632;SDS011;21754;48.216;-1.628;2022-10-31T01:31:23;3.28;;;2.42;;
35632;SDS011;21754;48.216;-1.628;2022-10-31T01:33:50;7.13;;;2.75;;
35632;SDS011;21754;48.216;-1.628;2022-10-31T01:36:18;7.32;;;2.05;;
35632;SDS011;21754;48.216;-1.628;2022-10-31T01:38:44;7.95;;;2.08;;
35632;SDS011;21754;48.216;-1.628;2022-10-31T01:41:11;4.68;;;2.40;;
35632;SDS011;21754;48.216;-1.628;2022-10-31T01:46:13;15.07;;;4.43;;
35632;SDS011;21754;48.216;-1.628;2022-10-31T01:48:39;7.80;;;2.40;;
35632;SDS011;21754;48.216;-1.628;2022-10-31T01:51:06;6.07;;;1.88;;
35632;SDS011;21754;48.216;-1.628;2022-10-31T01:53:33;10.68;;;2.25;;
35632;SDS011;21754;48.216;-1.628;2022-10-31T01:56:00;2.33;;;1.60;;
35632;SDS011;21754;48.216;-1.628;2022-10-31T01:58:27;10.25;;;3.05;;
35632;SDS011;21754;48.216;-1.628;2022-10-31T02:00:54;5.18;;;2.13;;
35632;SDS011;21754;48.216;-1.628;2022-10-31T02:03:21;7.65;;;1.92;;
35632;SDS011;21754;48.216;-1.628;2022-10-31T02:05:48;5.30;;;2.28;;
35632;SDS011;21754;48.216;-1.628;2022-10-31T02:08:16;1.75;;;1.65;;
35632;SDS011;21754;48.216;-1.628;2022-10-31T02:10:44;5.05;;;1.70;;
35632;SDS011;21754;48.216;-1.628;2022-10-31T02:13:10;5.35;;;2.25;;
35632;SDS011;21754;48.216;-1.628;2022-10-31T02:15:38;7.72;;;2.38;;
35632;SDS011;21754;48.216;-1.628;2022-10-31T02:18:05;10.50;;;2.20;;
35632;SDS011;21754;48.216;-1.628;2022-10-31T02:20:38;3.30;;;3.03;;
35632;SDS011;21754;48.216;-1.628;2022-10-31T02:33:48;2.40;;;2.17;;
35632;SDS011;21754;48.216;-1.628;2022-10-31T02:36:26;5.18;;;2.20;;
35632;SDS011;21754;48.216;-1.628;2022-10-31T02:46:15;4.30;;;2.00;;
35632;SDS011;21754;48.216;-1.628;2022-10-31T02:48:44;20.58;;;2.08;;
35632;SDS011;21754;48.216;-1.628;2022-10-31T02:51:11;17.33;;;1.92;;
35632;SDS011;21754;48.216;-1.628;2022-10-31T02:53:37;11.68;;;2.30;;
35632;SDS011;21754;48.216;-1.628;2022-10-31T02:56:14;6.60;;;1.85;;
35632;SDS011;21754;48.216;-1.628;2022-10-31T03:06:17;14.70;;;2.05;;
35632;SDS011;21754;48.216;-1.628;2022-10-31T03:11:15;13.80;;;2.75;;
35632;SDS011;21754;48.216;-1.628;2022-10-31T03:13:47;2.45;;;2.25;;
35632;SDS011;21754;48.216;-1.628;2022-10-31T03:16:16;2.13;;;1.73;;
35632;SDS011;21754;48.216;-1.628;2022-10-31T03:18:43;7.70;;;1.50;;
35632;SDS011;21754;48.216;-1.628;2022-10-31T03:23:57;9.13;;;1.55;;
35632;SDS011;21754;48.216;-1.628;2022-10-31T03:26:24;5.68;;;1.67;;
35632;SDS011;21754;48.216;-1.628;2022-10-31T03:28:59;9.75;;;1.70;;
35632;SDS011;21754;48.216;-1.628;2022-10-31T03:31:27;8.60;;;1.42;;
35632;SDS011;21754;48.216;-1.628;2022-10-31T03:33:56;14.32;;;1.75;;
35632;SDS011;21754;48.216;-1.628;2022-10-31T03:36:23;11.77;;;1.98;;
35632;SDS011;21754;48.216;-1.628;2022-10-31T03:38:50;18.30;;;1.98;;
35632;SDS011;21754;48.216;-1.628;2022-10-31T03:41:21;14.65;;;1.75;;
35632;SDS011;21754;48.216;-1.628;2022-10-31T03:43:51;14.30;;;1.38;;
35632;SDS011;21754;48.216;-1.628;2022-10-31T03:46:18;24.58;;;2.28;;
35632;SDS011;21754;48.216;-1.628;2022-10-31T03:48:44;15.10;;;2.15;;
35632;SDS011;21754;48.216;-1.628;2022-10-31T03:51:14;30.35;;;1.65;;
35632;SDS011;21754;48.216;-1.628;2022-10-31T03:53:46;22.40;;;1.60;;
35632;SDS011;21754;48.216;-1.628;2022-10-31T03:56:19;24.13;;;1.85;;
35632;SDS011;21754;48.216;-1.628;2022-10-31T03:58:51;21.33;;;1.98;;
35632;SDS011;21754;48.216;-1.628;2022-10-31T04:01:20;14.45;;;1.27;;
35632;SDS011;21754;48.216;-1.628;2022-10-31T04:03:47;24.90;;;2.47;;
35632;SDS011;21754;48.216;-1.628;2022-10-31T04:06:14;8.00;;;1.95;;
35632;SDS011;21754;48.216;-1.628;2022-10-31T04:08:44;12.65;;;1.40;;
35632;SDS011;21754;48.216;-1.628;2022-10-31T04:11:11;15.68;;;2.13;;
35632;SDS011;21754;48.216;-1.628;2022-10-31T04:13:39;18.77;;;1.83;;
35632;SDS011;21754;48.216;-1.628;2022-10-31T04:16:06;5.03;;;1.65;;
35632;SDS011;21754;48.216;-1.628;2022-10-31T04:18:32;5.13;;;1.40;;
35632;SDS011;21754;48.216;-1.628;2022-10-31T04:20:59;10.05;;;1.50;;
35632;SDS011;21754;48.216;-1.628;2022-10-31T04:23:25;7.40;;;1.70;;
35632;SDS011;21754;48.216;-1.628;2022-10-31T04:25:52;1.70;;;1.60;;
35632;SDS011;21754;48.216;-1.628;2022-10-31T04:28:18;7.82;;;2.15;;
35632;SDS011;21754;48.216;-1.628;2022-10-31T04:30:44;9.55;;;1.63;;
35632;SDS011;21754;48.216;-1.628;2022-10-31T04:33:10;4.85;;;1.30;;
35632;SDS011;21754;48.216;-1.628;2022-10-31T04:35:36;2.28;;;1.20;;
35632;SDS011;21754;48.216;-1.628;2022-10-31T04:38:02;2.03;;;1.60;;
35632;SDS011;21754;48.216;-1.628;2022-10-31T04:40:28;9.45;;;1.33;;
35632;SDS011;21754;48.216;-1.628;2022-10-31T04:42:54;6.45;;;1.58;;
35632;SDS011;21754;48.216;-1.628;2022-10-31T04:45:20;17.83;;;1.65;;
35632;SDS011;21754;48.216;-1.628;2022-10-31T04:47:46;12.80;;;1.52;;
35632;SDS011;21754;48.216;-1.628;2022-10-31T04:50:12;8.07;;;1.38;;
35632;SDS011;21754;48.216;-1.628;2022-10-31T04:52:38;10.80;;;1.63;;
35632;SDS011;21754;48.216;-1.628;2022-10-31T04:55:04;10.98;;;1.52;;
35632;SDS011;21754;48.216;-1.628;2022-10-31T04:57:30;14.60;;;1.73;;
35632;SDS011;21754;48.216;-1.628;2022-10-31T04:59:56;24.80;;;1.73;;
35632;SDS011;21754;48.216;-1.628;2022-10-31T05:02:22;24.17;;;1.92;;
35632;SDS011;21754;48.216;-1.628;2022-10-31T05:04:48;14.77;;;1.55;;
35632;SDS011;21754;48.216;-1.628;2022-10-31T05:07:14;3.03;;;1.27;;
35632;SDS011;21754;48.216;-1.628;2022-10-31T05:09:40;30.13;;;1.83;;
35632;SDS011;21754;48.216;-1.628;2022-10-31T05:12:06;5.10;;;1.20;;
35632;SDS011;21754;48.216;-1.628;2022-10-31T05:14:32;15.07;;;1.40;;
35632;SDS011;21754;48.216;-1.628;2022-10-31T05:16:59;19.10;;;1.60;;
35632;SDS011;21754;48.216;-1.628;2022-10-31T05:19:25;21.40;;;1.55;;
35632;SDS011;21754;48.216;-1.628;2022-10-31T05:21:51;5.25;;;1.15;;
35632;SDS011;21754;48.216;-1.628;2022-10-31T05:24:17;8.95;;;1.40;;
35632;SDS011;21754;48.216;-1.628;2022-10-31T05:26:44;21.57;;;1.57;;
35632;SDS011;21754;48.216;-1.628;2022-10-31T05:29:10;18.20;;;1.58;;
35632;SDS011;21754;48.216;-1.628;2022-10-31T05:31:36;10.60;;;1.58;;
35632;SDS011;21754;48.216;-1.628;2022-10-31T05:34:02;15.23;;;1.95;;
35632;SDS011;21754;48.216;-1.628;2022-10-31T05:36:28;25.10;;;1.52;;
35632;SDS011;21754;48.216;-1.628;2022-10-31T05:38:54;22.90;;;1.65;;
35632;SDS011;21754;48.216;-1.628;2022-10-31T05:41:20;26.17;;;1.95;;
35632;SDS011;21754;48.216;-1.628;2022-10-31T05:43:46;2.45;;;1.42;;
35632;SDS011;21754;48.216;-1.628;2022-10-31T05:46:12;14.18;;;2.03;;
35632;SDS011;21754;48.216;-1.628;2022-10-31T05:48:38;2.58;;;1.25;;
35632;SDS011;21754;48.216;-1.628;2022-10-31T05:51:04;6.18;;;1.25;;
35632;SDS011;21754;48.216;-1.628;2022-10-31T05:53:30;7.95;;;1.38;;
35632;SDS011;21754;48.216;-1.628;2022-10-31T05:55:56;5.25;;;1.60;;
35632;SDS011;21754;48.216;-1.628;2022-10-31T05:58:22;23.65;;;1.80;;
35632;SDS011;21754;48.216;-1.628;2022-10-31T06:00:48;2.25;;;1.70;;
35632;SDS011;21754;48.216;-1.628;2022-10-31T06:03:14;15.93;;;2.17;;
35632;SDS011;21754;48.216;-1.628;2022-10-31T06:05:40;3.38;;;1.42;;
35632;SDS011;21754;48.216;-1.628;2022-10-31T06:08:06;3.70;;;1.35;;
35632;SDS011;21754;48.216;-1.628;2022-10-31T06:10:32;3.67;;;1.20;;
35632;SDS011;21754;48.216;-1.628;2022-10-31T06:12:58;8.38;;;1.40;;
35632;SDS011;21754;48.216;-1.628;2022-10-31T06:15:24;8.05;;;1.45;;
35632;SDS011;21754;48.216;-1.628;2022-10-31T06:18:00;2.05;;;1.23;;
35632;SDS011;21754;48.216;-1.628;2022-10-31T06:20:27;7.22;;;1.38;;
35632;SDS011;21754;48.216;-1.628;2022-10-31T06:22:53;3.88;;;1.30;;
35632;SDS011;21754;48.216;-1.628;2022-10-31T06:25:19;1.23;;;1.13;;
35632;SDS011;21754;48.216;-1.628;2022-10-31T06:27:45;1.60;;;1.50;;
35632;SDS011;21754;48.216;-1.628;2022-10-31T06:30:11;7.03;;;1.27;;
35632;SDS011;21754;48.216;-1.628;2022-10-31T06:32:37;1.50;;;1.40;;
35632;SDS011;21754;48.216;-1.628;2022-10-31T06:35:03;2.80;;;1.20;;
35632;SDS011;21754;48.216;-1.628;2022-10-31T06:37:29;2.60;;;1.27;;
35632;SDS011;21754;48.216;-1.628;2022-10-31T06:39:55;2.08;;;1.88;;
35632;SDS011;21754;48.216;-1.628;2022-10-31T06:42:21;2.65;;;2.05;;
35632;SDS011;21754;48.216;-1.628;2022-10-31T06:44:47;2.25;;;1.45;;
35632;SDS011;21754;48.216;-1.628;2022-10-31T06:47:13;4.20;;;1.55;;
35632;SDS011;21754;48.216;-1.628;2022-10-31T06:49:39;3.28;;;1.90;;
35632;SDS011;21754;48.216;-1.628;2022-10-31T06:52:05;2.20;;;1.17;;
35632;SDS011;21754;48.216;-1.628;2022-10-31T06:54:31;1.92;;;1.83;;
35632;SDS011;21754;48.216;-1.628;2022-10-31T06:56:57;1.45;;;1.35;;
35632;SDS011;21754;48.216;-1.628;2022-10-31T06:59:23;3.53;;;1.73;;
35632;SDS011;21754;48.216;-1.628;2022-10-31T07:01:50;9.68;;;1.95;;
35632;SDS011;21754;48.216;-1.628;2022-10-31T07:04:16;4.22;;;3.15;;
35632;SDS011;21754;48.216;-1.628;2022-10-31T07:06:42;1.50;;;1.40;;
35632;SDS011;21754;48.216;-1.628;2022-10-31T07:09:08;1.65;;;1.55;;
35632;SDS011;21754;48.216;-1.628;2022-10-31T07:11:34;2.00;;;1.90;;
35632;SDS011;21754;48.216;-1.628;2022-10-31T07:14:00;2.25;;;1.80;;
35632;SDS011;21754;48.216;-1.628;2022-10-31T07:16:26;2.05;;;1.73;;
35632;SDS011;21754;48.216;-1.628;2022-10-31T07:18:52;3.10;;;1.58;;
35632;SDS011;21754;48.216;-1.628;2022-10-31T07:21:18;4.47;;;2.03;;
35632;SDS011;21754;48.216;-1.628;2022-10-31T07:23:46;1.73;;;1.52;;
35632;SDS011;21754;48.216;-1.628;2022-10-31T07:26:13;3.20;;;1.58;;
35632;SDS011;21754;48.216;-1.628;2022-10-31T07:28:39;2.17;;;1.40;;
35632;SDS011;21754;48.216;-1.628;2022-10-31T07:31:05;2.00;;;1.75;;
35632;SDS011;21754;48.216;-1.628;2022-10-31T07:33:31;1.45;;;1.35;;
35632;SDS011;21754;48.216;-1.628;2022-10-31T07:35:57;5.07;;;1.77;;
35632;SDS011;21754;48.216;-1.628;2022-10-31T07:38:23;2.35;;;1.73;;
35632;SDS011;21754;48.216;-1.628;2022-10-31T07:40:50;2.42;;;1.45;;
35632;SDS011;21754;48.216;-1.628;2022-10-31T07:43:19;2.45;;;2.08;;
35632;SDS011;21754;48.216;-1.628;2022-10-31T07:45:52;11.05;;;2.25;;
35632;SDS011;21754;48.216;-1.628;2022-10-31T07:48:18;11.20;;;2.40;;
35632;SDS011;21754;48.216;-1.628;2022-10-31T07:50:44;3.53;;;1.92;;
35632;SDS011;21754;48.216;-1.628;2022-10-31T07:53:11;2.00;;;1.80;;
35632;SDS011;21754;48.216;-1.628;2022-10-31T07:55:38;4.03;;;1.55;;
35632;SDS011;21754;48.216;-1.628;2022-10-31T07:58:07;1.70;;;1.60;;
35632;SDS011;21754;48.216;-1.628;2022-10-31T08:00:34;2.25;;;1.77;;
35632;SDS011;21754;48.216;-1.628;2022-10-31T08:03:01;2.50;;;1.85;;
35632;SDS011;21754;48.216;-1.628;2022-10-31T08:05:28;6.40;;;1.80;;
35632;SDS011;21754;48.216;-1.628;2022-10-31T08:07:54;1.35;;;1.25;;
35632;SDS011;21754;48.216;-1.628;2022-10-31T08:10:20;4.28;;;1.33;;
35632;SDS011;21754;48.216;-1.628;2022-10-31T08:12:46;3.15;;;2.10;;
35632;SDS011;21754;48.216;-1.628;2022-10-31T08:15:12;1.85;;;1.75;;
35632;SDS011;21754;48.216;-1.628;2022-10-31T08:17:38;3.92;;;2.00;;
35632;SDS011;21754;48.216;-1.628;2022-10-31T08:20:05;2.50;;;2.30;;
35632;SDS011;21754;48.216;-1.628;2022-10-31T08:22:31;4.13;;;2.25;;
35632;SDS011;21754;48.216;-1.628;2022-10-31T08:24:57;4.80;;;2.70;;
35632;SDS011;21754;48.216;-1.628;2022-10-31T08:27:23;5.47;;;2.50;;
35632;SDS011;21754;48.216;-1.628;2022-10-31T08:29:49;6.00;;;3.30;;
35632;SDS011;21754;48.216;-1.628;2022-10-31T08:32:15;11.88;;;3.42;;
35632;SDS011;21754;48.216;-1.628;2022-10-31T08:34:41;10.35;;;4.15;;
35632;SDS011;21754;48.216;-1.628;2022-10-31T08:37:07;5.32;;;2.97;;
35632;SDS011;21754;48.216;-1.628;2022-10-31T08:39:33;7.97;;;3.45;;
35632;SDS011;21754;48.216;-1.628;2022-10-31T08:41:59;9.40;;;4.05;;
35632;SDS011;21754;48.216;-1.628;2022-10-31T08:44:25;8.50;;;4.47;;
35632;SDS011;21754;48.216;-1.628;2022-10-31T08:46:51;12.27;;;3.67;;
35632;SDS011;21754;48.216;-1.628;2022-10-31T08:49:17;9.95;;;4.47;;
35632;SDS011;21754;48.216;-1.628;2022-10-31T08:51:43;12.60;;;4.82;;
35632;SDS011;21754;48.216;-1.628;2022-10-31T08:54:09;9.73;;;4.70;;
35632;SDS011;21754;48.216;-1.628;2022-10-31T08:56:35;6.30;;;3.92;;
35632;SDS011;21754;48.216;-1.628;2022-10-31T08:59:01;5.45;;;2.97;;
35632;SDS011;21754;48.216;-1.628;2022-10-31T09:01:27;7.28;;;3.60;;
35632;SDS011;21754;48.216;-1.628;2022-10-31T09:03:53;4.43;;;2.70;;
35632;SDS011;21754;48.216;-1.628;2022-10-31T09:06:19;5.93;;;3.05;;
35632;SDS011;21754;48.216;-1.628;2022-10-31T09:08:45;5.32;;;3.42;;
35632;SDS011;21754;48.216;-1.628;2022-10-31T09:11:11;6.60;;;3.35;;
35632;SDS011;21754;48.216;-1.628;2022-10-31T09:13:37;8.55;;;3.28;;
35632;SDS011;21754;48.216;-1.628;2022-10-31T09:16:03;2.80;;;2.47;;
35632;SDS011;21754;48.216;-1.628;2022-10-31T09:18:30;4.20;;;2.60;;
35632;SDS011;21754;48.216;-1.628;2022-10-31T09:20:57;9.05;;;3.28;;
35632;SDS011;21754;48.216;-1.628;2022-10-31T09:23:23;8.80;;;2.53;;
35632;SDS011;21754;48.216;-1.628;2022-10-31T09:25:50;7.18;;;3.28;;
35632;SDS011;21754;48.216;-1.628;2022-10-31T09:28:18;9.98;;;2.70;;
35632;SDS011;21754;48.216;-1.628;2022-10-31T09:30:45;6.13;;;2.33;;
35632;SDS011;21754;48.216;-1.628;2022-10-31T09:33:12;4.05;;;2.60;;
35632;SDS011;21754;48.216;-1.628;2022-10-31T09:35:38;6.43;;;2.17;;
35632;SDS011;21754;48.216;-1.628;2022-10-31T09:38:05;4.10;;;3.10;;
35632;SDS011;21754;48.216;-1.628;2022-10-31T09:40:41;6.90;;;3.05;;
35632;SDS011;21754;48.216;-1.628;2022-10-31T09:43:09;10.50;;;4.57;;
35632;SDS011;21754;48.216;-1.628;2022-10-31T09:48:20;6.60;;;3.90;;
35632;SDS011;21754;48.216;-1.628;2022-10-31T09:50:49;11.70;;;3.30;;
35632;SDS011;21754;48.216;-1.628;2022-10-31T09:55:55;11.40;;;2.95;;
35632;SDS011;21754;48.216;-1.628;2022-10-31T09:58:28;10.18;;;3.65;;
35632;SDS011;21754;48.216;-1.628;2022-10-31T10:00:58;10.93;;;4.38;;
35632;SDS011;21754;48.216;-1.628;2022-10-31T10:05:54;6.10;;;4.88;;
35632;SDS011;21754;48.216;-1.628;2022-10-31T10:08:26;13.05;;;5.00;;
35632;SDS011;21754;48.216;-1.628;2022-10-31T10:10:55;6.78;;;5.43;;
35632;SDS011;21754;48.216;-1.628;2022-10-31T10:16:13;7.53;;;5.72;;
35632;SDS011;21754;48.216;-1.628;2022-10-31T10:26:34;8.50;;;5.75;;
35632;SDS011;21754;48.216;-1.628;2022-10-31T10:29:02;10.80;;;5.38;;
35632;SDS011;21754;48.216;-1.628;2022-10-31T10:31:34;14.40;;;7.25;;
35632;SDS011;21754;48.216;-1.628;2022-10-31T10:36:51;12.25;;;6.38;;
35632;SDS011;21754;48.216;-1.628;2022-10-31T10:39:19;10.93;;;6.93;;
35632;SDS011;21754;48.216;-1.628;2022-10-31T10:41:50;11.63;;;5.75;;
35632;SDS011;21754;48.216;-1.628;2022-10-31T10:44:38;10.88;;;5.75;;
35632;SDS011;21754;48.216;-1.628;2022-10-31T10:47:25;15.30;;;5.72;;
35632;SDS011;21754;48.216;-1.628;2022-10-31T10:58:04;10.13;;;5.43;;
35632;SDS011;21754;48.216;-1.628;2022-10-31T11:00:34;11.75;;;6.43;;
35632;SDS011;21754;48.216;-1.628;2022-10-31T11:03:00;8.90;;;6.78;;
35632;SDS011;21754;48.216;-1.628;2022-10-31T11:05:33;13.35;;;5.43;;
35632;SDS011;21754;48.216;-1.628;2022-10-31T11:08:01;15.70;;;6.57;;
35632;SDS011;21754;48.216;-1.628;2022-10-31T11:10:27;16.90;;;6.53;;
35632;SDS011;21754;48.216;-1.628;2022-10-31T11:13:01;9.27;;;6.00;;
35632;SDS011;21754;48.216;-1.628;2022-10-31T11:15:28;12.13;;;6.50;;
35632;SDS011;21754;48.216;-1.628;2022-10-31T11:17:56;15.70;;;5.75;;
35632;SDS011;21754;48.216;-1.628;2022-10-31T11:22:48;9.40;;;6.40;;
35632;SDS011;21754;48.216;-1.628;2022-10-31T11:25:24;11.43;;;6.72;;
35632;SDS011;21754;48.216;-1.628;2022-10-31T11:28:03;8.23;;;6.38;;
35632;SDS011;21754;48.216;-1.628;2022-10-31T11:30:30;12.30;;;6.40;;
35632;SDS011;21754;48.216;-1.628;2022-10-31T11:32:56;9.43;;;5.93;;
35632;SDS011;21754;48.216;-1.628;2022-10-31T11:35:24;18.48;;;7.00;;
35632;SDS011;21754;48.216;-1.628;2022-10-31T11:37:51;20.17;;;6.47;;
35632;SDS011;21754;48.216;-1.628;2022-10-31T11:40:24;17.73;;;6.68;;
35632;SDS011;21754;48.216;-1.628;2022-10-31T11:42:51;15.07;;;7.88;;
35632;SDS011;21754;48.216;-1.628;2022-10-31T11:45:33;24.77;;;7.93;;
35632;SDS011;21754;48.216;-1.628;2022-10-31T11:48:02;15.25;;;8.23;;
35632;SDS011;21754;48.216;-1.628;2022-10-31T11:50:35;14.57;;;7.65;;
35632;SDS011;21754;48.216;-1.628;2022-10-31T11:53:03;13.82;;;7.82;;
35632;SDS011;21754;48.216;-1.628;2022-10-31T11:57:56;14.38;;;7.57;;
35632;SDS011;21754;48.216;-1.628;2022-10-31T12:00:23;21.58;;;9.85;;
35632;SDS011;21754;48.216;-1.628;2022-10-31T12:02:50;11.02;;;6.63;;
35632;SDS011;21754;48.216;-1.628;2022-10-31T12:05:21;16.35;;;7.50;;
35632;SDS011;21754;48.216;-1.628;2022-10-31T12:07:48;14.52;;;7.38;;
35632;SDS011;21754;48.216;-1.628;2022-10-31T12:10:15;19.60;;;8.77;;
35632;SDS011;21754;48.216;-1.628;2022-10-31T12:46:08;18.90;;;9.32;;
35632;SDS011;21754;48.216;-1.628;2022-10-31T12:51:33;20.92;;;9.48;;
35632;SDS011;21754;48.216;-1.628;2022-10-31T12:59:28;17.60;;;9.23;;
35632;SDS011;21754;48.216;-1.628;2022-10-31T13:04:35;18.35;;;9.43;;
35632;SDS011;21754;48.216;-1.628;2022-10-31T13:07:05;22.23;;;10.70;;
35632;SDS011;21754;48.216;-1.628;2022-10-31T13:09:37;22.63;;;10.18;;
35632;SDS011;21754;48.216;-1.628;2022-10-31T13:12:07;11.30;;;8.65;;
35632;SDS011;21754;48.216;-1.628;2022-10-31T13:14:42;13.93;;;8.70;;
35632;SDS011;21754;48.216;-1.628;2022-10-31T13:17:21;12.40;;;9.40;;
35632;SDS011;21754;48.216;-1.628;2022-10-31T13:19:48;15.40;;;9.02;;
35632;SDS011;21754;48.216;-1.628;2022-10-31T13:22:17;18.08;;;8.57;;
35632;SDS011;21754;48.216;-1.628;2022-10-31T13:27:15;18.15;;;9.30;;
35632;SDS011;21754;48.216;-1.628;2022-10-31T13:29:47;15.55;;;8.63;;
35632;SDS011;21754;48.216;-1.628;2022-10-31T13:32:19;17.58;;;9.73;;
35632;SDS011;21754;48.216;-1.628;2022-10-31T13:34:46;20.05;;;8.48;;
35632;SDS011;21754;48.216;-1.628;2022-10-31T13:44:46;12.07;;;8.48;;
35632;SDS011;21754;48.216;-1.628;2022-10-31T13:47:28;16.27;;;7.43;;
35632;SDS011;21754;48.216;-1.628;2022-10-31T13:50:05;13.65;;;7.28;;
35632;SDS011;21754;48.216;-1.628;2022-10-31T13:52:31;21.13;;;8.50;;
35632;SDS011;21754;48.216;-1.628;2022-10-31T13:54:57;15.43;;;9.05;;
35632;SDS011;21754;48.216;-1.628;2022-10-31T13:57:35;17.55;;;8.07;;
35632;SDS011;21754;48.216;-1.628;2022-10-31T14:00:06;16.20;;;7.82;;
35632;SDS011;21754;48.216;-1.628;2022-10-31T14:02:33;14.15;;;7.57;;
35632;SDS011;21754;48.216;-1.628;2022-10-31T14:05:02;18.85;;;8.88;;
35632;SDS011;21754;48.216;-1.628;2022-10-31T14:07:28;13.40;;;6.70;;
35632;SDS011;21754;48.216;-1.628;2022-10-31T14:14:51;16.77;;;9.07;;
35632;SDS011;21754;48.216;-1.628;2022-10-31T14:17:22;15.40;;;8.48;;
35632;SDS011;21754;48.216;-1.628;2022-10-31T14:19:56;15.25;;;8.82;;
35632;SDS011;21754;48.216;-1.628;2022-10-31T14:22:22;20.23;;;9.55;;
35632;SDS011;21754;48.216;-1.628;2022-10-31T14:24:48;16.30;;;7.20;;
35632;SDS011;21754;48.216;-1.628;2022-10-31T14:29:50;18.25;;;8.25;;
35632;SDS011;21754;48.216;-1.628;2022-10-31T14:34:50;15.75;;;8.82;;
35632;SDS011;21754;48.216;-1.628;2022-10-31T14:50:21;16.23;;;7.57;;
35632;SDS011;21754;48.216;-1.628;2022-10-31T14:52:50;21.98;;;7.43;;
35632;SDS011;21754;48.216;-1.628;2022-10-31T14:55:17;24.13;;;7.68;;
35632;SDS011;21754;48.216;-1.628;2022-10-31T14:57:47;9.80;;;6.50;;
35632;SDS011;21754;48.216;-1.628;2022-10-31T15:00:16;12.93;;;6.13;;
35632;SDS011;21754;48.216;-1.628;2022-10-31T15:05:27;14.95;;;6.82;;
35632;SDS011;21754;48.216;-1.628;2022-10-31T15:07:54;8.75;;;6.43;;
35632;SDS011;21754;48.216;-1.628;2022-10-31T15:10:25;11.30;;;6.25;;
35632;SDS011;21754;48.216;-1.628;2022-10-31T15:15:21;7.47;;;5.28;;
35632;SDS011;21754;48.216;-1.628;2022-10-31T15:17:52;5.78;;;3.42;;
35632;SDS011;21754;48.216;-1.628;2022-10-31T15:20:20;17.27;;;3.70;;
35632;SDS011;21754;48.216;-1.628;2022-10-31T15:22:46;9.53;;;2.93;;
35632;SDS011;21754;48.216;-1.628;2022-10-31T15:25:23;4.47;;;2.80;;
35632;SDS011;21754;48.216;-1.628;2022-10-31T15:27:50;3.20;;;1.85;;
35632;SDS011;21754;48.216;-1.628;2022-10-31T15:30:20;6.05;;;2.53;;
35632;SDS011;21754;48.216;-1.628;2022-10-31T15:32:47;4.43;;;1.95;;
35632;SDS011;21754;48.216;-1.628;2022-10-31T15:35:29;3.47;;;2.47;;
35632;SDS011;21754;48.216;-1.628;2022-10-31T15:37:58;3.70;;;1.50;;
35632;SDS011;21754;48.216;-1.628;2022-10-31T15:40:26;1.90;;;1.67;;
35632;SDS011;21754;48.216;-1.628;2022-10-31T15:42:56;2.15;;;1.92;;
35632;SDS011;21754;48.216;-1.628;2022-10-31T15:45:24;3.00;;;1.65;;
35632;SDS011;21754;48.216;-1.628;2022-10-31T15:47:58;3.75;;;1.92;;
35632;SDS011;21754;48.216;-1.628;2022-10-31T15:50:32;4.03;;;1.80;;
35632;SDS011;21754;48.216;-1.628;2022-10-31T15:53:00;10.20;;;1.95;;
35632;SDS011;21754;48.216;-1.628;2022-10-31T15:55:27;2.15;;;1.50;;
35632;SDS011;21754;48.216;-1.628;2022-10-31T15:57:55;4.05;;;1.75;;
35632;SDS011;21754;48.216;-1.628;2022-10-31T16:00:36;4.75;;;1.75;;
35632;SDS011;21754;48.216;-1.628;2022-10-31T16:05:43;7.28;;;1.73;;
35632;SDS011;21754;48.216;-1.628;2022-10-31T16:11:39;14.55;;;3.13;;
35632;SDS011;21754;48.216;-1.628;2022-10-31T16:13:41;3.83;;;2.67;;
35632;SDS011;21754;48.216;-1.628;2022-10-31T16:16:11;4.10;;;1.95;;
35632;SDS011;21754;48.216;-1.628;2022-10-31T16:18:38;10.05;;;2.38;;
35632;SDS011;21754;48.216;-1.628;2022-10-31T16:21:05;4.47;;;2.13;;
35632;SDS011;21754;48.216;-1.628;2022-10-31T16:23:31;3.75;;;2.80;;
35632;SDS011;21754;48.216;-1.628;2022-10-31T16:25:58;4.82;;;3.20;;
35632;SDS011;21754;48.216;-1.628;2022-10-31T16:28:24;6.30;;;2.83;;
35632;SDS011;21754;48.216;-1.628;2022-10-31T16:30:51;7.28;;;2.58;;
35632;SDS011;21754;48.216;-1.628;2022-10-31T16:33:23;11.07;;;2.65;;
35632;SDS011;21754;48.216;-1.628;2022-10-31T16:35:49;3.90;;;2.05;;
35632;SDS011;21754;48.216;-1.628;2022-10-31T16:38:15;6.68;;;2.50;;
35632;SDS011;21754;48.216;-1.628;2022-10-31T16:40:41;9.38;;;2.20;;
35632;SDS011;21754;48.216;-1.628;2022-10-31T16:43:09;5.63;;;1.52;;
35632;SDS011;21754;48.216;-1.628;2022-10-31T16:45:37;3.78;;;2.28;;
35632;SDS011;21754;48.216;-1.628;2022-10-31T16:48:11;7.72;;;2.25;;
35632;SDS011;21754;48.216;-1.628;2022-10-31T16:50:39;14.45;;;3.47;;
35632;SDS011;21754;48.216;-1.628;2022-10-31T16:53:05;4.43;;;2.08;;
35632;SDS011;21754;48.216;-1.628;2022-10-31T16:55:31;4.38;;;1.50;;
35632;SDS011;21754;48.216;-1.628;2022-10-31T16:58:01;6.78;;;2.10;;
35632;SDS011;21754;48.216;-1.628;2022-10-31T17:00:27;5.65;;;2.15;;
35632;SDS011;21754;48.216;-1.628;2022-10-31T17:02:54;4.57;;;2.20;;
35632;SDS011;21754;48.216;-1.628;2022-10-31T17:05:21;5.53;;;2.00;;
35632;SDS011;21754;48.216;-1.628;2022-10-31T17:07:54;10.13;;;2.42;;
35632;SDS011;21754;48.216;-1.628;2022-10-31T17:10:20;7.75;;;2.33;;